createdAt,value
2017-10-12T00:00:45.747Z,4.30
2017-10-12T00:03:13.242Z,4.27
2017-10-12T00:05:40.756Z,5.47
2017-10-12T00:08:08.247Z,5.50
2017-10-12T00:10:35.739Z,4.70
2017-10-12T00:13:03.245Z,4.37
2017-10-12T00:15:30.734Z,4.77
2017-10-12T00:17:58.215Z,4.43
2017-10-12T00:20:25.726Z,4.17
2017-10-12T00:22:53.210Z,5.27
2017-10-12T00:25:20.700Z,4.73
2017-10-12T00:27:48.982Z,4.83
2017-10-12T00:30:16.470Z,5.27
2017-10-12T00:32:44.718Z,4.90
2017-10-12T00:35:12.228Z,5.20
2017-10-12T00:37:39.728Z,5.67
2017-10-12T00:40:07.219Z,4.80
2017-10-12T00:42:34.734Z,5.00
2017-10-12T00:45:02.231Z,4.53
2017-10-12T00:47:30.489Z,5.57
2017-10-12T00:49:58.785Z,6.30
2017-10-12T00:52:27.038Z,5.00
2017-10-12T00:54:55.290Z,5.53
2017-10-12T00:57:22.842Z,5.03
2017-10-12T00:59:50.334Z,5.70
2017-10-12T01:02:17.819Z,5.70
2017-10-12T01:04:45.598Z,5.00
2017-10-12T01:07:13.095Z,5.43
2017-10-12T01:09:40.582Z,5.40
2017-10-12T01:12:08.863Z,5.90
2017-10-12T01:14:36.351Z,5.97
2017-10-12T01:17:03.835Z,6.50
2017-10-12T01:19:31.348Z,6.00
2017-10-12T01:21:59.614Z,5.70
2017-10-12T01:24:27.106Z,6.53
2017-10-12T01:26:54.615Z,6.50
2017-10-12T01:29:22.107Z,6.20
2017-10-12T01:31:49.644Z,7.20
2017-10-12T01:34:17.906Z,7.03
2017-10-12T01:36:45.422Z,8.37
2017-10-12T01:39:12.934Z,7.30
2017-10-12T01:41:40.435Z,6.60
2017-10-12T01:44:07.933Z,7.40
2017-10-12T01:46:35.439Z,6.40
2017-10-12T01:49:03.691Z,6.10
2017-10-12T01:51:31.955Z,7.37
2017-10-12T01:54:00.497Z,7.40
2017-10-12T01:56:28.000Z,6.97
2017-10-12T01:58:55.498Z,7.10
2017-10-12T02:01:23.018Z,8.63
2017-10-12T02:03:50.517Z,7.77
2017-10-12T02:06:18.771Z,7.00
2017-10-12T02:08:46.288Z,7.60
2017-10-12T02:11:13.789Z,8.20
2017-10-12T02:13:41.283Z,7.57
2017-10-12T02:16:08.783Z,7.10
2017-10-12T02:18:36.274Z,8.90
2017-10-12T02:21:04.554Z,8.23
2017-10-12T02:23:32.819Z,7.70
2017-10-12T02:26:00.316Z,7.87
2017-10-12T02:28:27.829Z,6.80
2017-10-12T02:30:55.335Z,9.60
2017-10-12T02:33:22.827Z,7.83
2017-10-12T02:35:50.350Z,7.90
2017-10-12T02:38:17.846Z,7.53
2017-10-12T02:40:45.329Z,7.03
2017-10-12T02:43:12.841Z,7.40
2017-10-12T02:45:40.331Z,6.80
2017-10-12T02:48:07.831Z,7.60
2017-10-12T02:50:36.125Z,7.10
2017-10-12T02:53:03.625Z,7.37
2017-10-12T02:55:31.126Z,7.30
2017-10-12T02:57:58.637Z,6.67
2017-10-12T03:00:26.130Z,8.23
2017-10-12T03:02:54.386Z,7.57
2017-10-12T03:05:22.665Z,6.77
2017-10-12T03:07:50.918Z,8.27
2017-10-12T03:10:18.417Z,7.43
2017-10-12T03:12:45.960Z,7.33
2017-10-12T03:15:13.462Z,7.17
2017-10-12T03:17:40.998Z,7.73
2017-10-12T03:20:09.255Z,7.13
2017-10-12T03:22:36.746Z,8.00
2017-10-12T03:25:05.023Z,6.93
2017-10-12T03:27:33.398Z,6.27
2017-10-12T03:30:00.909Z,8.03
2017-10-12T03:32:28.430Z,7.97
2017-10-12T03:34:55.928Z,7.53
2017-10-12T03:37:23.414Z,7.37
2017-10-12T03:39:50.939Z,6.50
2017-10-12T03:42:18.443Z,7.50
2017-10-12T03:44:47.442Z,7.77
2017-10-12T03:47:14.965Z,6.93
2017-10-12T03:49:42.458Z,6.33
2017-10-12T03:52:10.723Z,7.40
2017-10-12T03:54:38.247Z,6.53
2017-10-12T03:57:05.739Z,6.57
2017-10-12T03:59:33.239Z,6.23
2017-10-12T04:02:00.752Z,6.13
2017-10-12T04:04:28.242Z,9.47
2017-10-12T04:06:56.510Z,8.03
2017-10-12T04:09:24.798Z,6.30
2017-10-12T04:11:53.058Z,6.40
2017-10-12T04:14:20.542Z,6.57
2017-10-12T04:16:48.351Z,6.70
2017-10-12T04:19:15.838Z,6.57
2017-10-12T04:21:43.340Z,7.80
2017-10-12T04:24:10.850Z,6.90
2017-10-12T04:26:38.351Z,6.57
2017-10-12T04:29:05.855Z,6.30
2017-10-12T04:31:33.370Z,7.00
2017-10-12T04:34:00.869Z,6.53
2017-10-12T04:36:28.363Z,6.30
2017-10-12T04:38:55.890Z,8.30
2017-10-12T04:41:23.378Z,6.73
2017-10-12T04:43:51.635Z,5.80
2017-10-12T04:46:19.152Z,5.53
2017-10-12T04:48:46.653Z,5.90
2017-10-12T04:51:14.173Z,6.00
2017-10-12T04:53:41.668Z,6.27
2017-10-12T04:56:09.188Z,6.43
2017-10-12T04:58:37.465Z,6.40
2017-10-12T05:01:04.962Z,6.77
2017-10-12T05:03:32.455Z,5.90
2017-10-12T05:05:59.962Z,6.50
2017-10-12T05:08:27.455Z,5.30
2017-10-12T05:10:54.943Z,6.37
2017-10-12T05:13:22.454Z,6.00
2017-10-12T05:15:49.949Z,5.67
2017-10-12T05:18:17.517Z,6.57
2017-10-12T05:20:45.014Z,5.97
2017-10-12T05:23:12.519Z,6.00
2017-10-12T05:25:40.030Z,5.67
2017-10-12T05:28:07.535Z,5.37
2017-10-12T05:30:35.794Z,5.00
2017-10-12T05:33:03.295Z,6.17
2017-10-12T05:35:30.786Z,5.50
2017-10-12T05:37:58.311Z,5.47
2017-10-12T05:40:25.819Z,5.10
2017-10-12T05:42:53.324Z,5.10
2017-10-12T05:45:20.839Z,5.07
2017-10-12T05:47:48.352Z,6.57
2017-10-12T05:50:15.853Z,6.43
2017-10-12T05:52:43.371Z,5.83
2017-10-12T05:55:10.868Z,6.10
2017-10-12T05:57:38.370Z,5.20
2017-10-12T06:00:05.898Z,5.27
2017-10-12T06:02:33.384Z,6.67
2017-10-12T06:05:01.650Z,6.00
2017-10-12T06:07:29.194Z,5.70
2017-10-12T06:09:56.694Z,5.83
2017-10-12T06:12:24.199Z,4.80
2017-10-12T06:14:51.719Z,5.80
2017-10-12T06:17:19.215Z,5.70
2017-10-12T06:19:46.714Z,6.20
2017-10-12T06:22:14.998Z,6.00
2017-10-12T06:24:43.253Z,5.23
2017-10-12T06:27:10.743Z,5.13
2017-10-12T06:29:38.259Z,5.87
2017-10-12T06:32:05.781Z,5.70
2017-10-12T06:34:33.301Z,5.93
2017-10-12T06:37:00.796Z,4.80
2017-10-12T06:39:28.293Z,5.17
2017-10-12T06:41:55.805Z,6.13
2017-10-12T06:44:23.306Z,5.00
2017-10-12T06:46:50.807Z,5.47
2017-10-12T06:49:18.331Z,5.53
2017-10-12T06:51:45.831Z,4.57
2017-10-12T06:54:14.109Z,5.20
2017-10-12T06:56:42.362Z,4.90
2017-10-12T06:59:09.847Z,4.90
2017-10-12T07:01:37.368Z,5.37
2017-10-12T07:04:04.858Z,5.67
2017-10-12T07:06:32.362Z,4.27
2017-10-12T07:08:59.873Z,5.30
2017-10-12T07:11:28.143Z,4.40
2017-10-12T07:13:56.430Z,4.30
2017-10-12T07:16:24.695Z,4.30
2017-10-12T07:18:52.959Z,4.97
2017-10-12T07:21:20.481Z,4.00
2017-10-12T07:23:47.970Z,5.50
2017-10-12T07:26:15.467Z,4.50
2017-10-12T07:28:42.998Z,4.50
2017-10-12T07:31:10.490Z,4.90
2017-10-12T07:33:37.988Z,4.63
2017-10-12T07:36:05.518Z,5.17
2017-10-12T07:38:33.017Z,4.80
2017-10-12T07:41:00.521Z,5.03
2017-10-12T07:43:28.038Z,5.63
2017-10-12T07:45:55.534Z,4.53
2017-10-12T07:48:23.058Z,4.37
2017-10-12T07:50:50.577Z,4.90
2017-10-12T07:53:18.070Z,3.63
2017-10-12T07:55:45.573Z,3.90
2017-10-12T07:58:13.092Z,4.30
2017-10-12T08:00:40.598Z,3.73
2017-10-12T08:03:08.085Z,4.17
2017-10-12T08:05:35.582Z,3.10
2017-10-12T08:08:03.094Z,3.07
2017-10-12T08:10:30.588Z,3.30
2017-10-12T08:12:58.078Z,3.13
2017-10-12T08:15:26.346Z,3.20
2017-10-12T08:17:54.625Z,2.90
2017-10-12T08:20:22.889Z,3.43
2017-10-12T08:22:50.383Z,3.27
2017-10-12T08:25:17.898Z,3.40
2017-10-12T08:27:45.410Z,3.33
2017-10-12T08:30:12.922Z,3.63
2017-10-12T08:32:41.227Z,3.50
2017-10-12T08:35:09.489Z,3.47
2017-10-12T08:37:37.774Z,3.33
2017-10-12T08:40:06.035Z,3.60
2017-10-12T08:42:33.532Z,3.27
2017-10-12T08:45:01.054Z,3.63
2017-10-12T08:47:28.546Z,3.90
2017-10-12T08:49:56.040Z,3.57
2017-10-12T08:52:23.552Z,2.90
2017-10-12T08:54:51.814Z,3.50
2017-10-12T08:57:20.075Z,4.20
2017-10-12T08:59:47.592Z,4.37
2017-10-12T09:02:15.097Z,4.20
2017-10-12T09:04:43.359Z,4.40
2017-10-12T09:07:10.870Z,4.10
2017-10-12T09:09:38.370Z,3.57
2017-10-12T09:12:05.884Z,4.00
2017-10-12T09:14:34.146Z,4.40
2017-10-12T09:17:02.414Z,4.00
2017-10-12T09:19:29.925Z,3.83
2017-10-12T09:21:57.418Z,4.10
2017-10-12T09:24:24.932Z,3.97
2017-10-12T09:26:52.437Z,4.17
2017-10-12T09:29:19.930Z,3.93
2017-10-12T09:31:48.205Z,3.57
2017-10-12T09:34:16.472Z,3.97
2017-10-12T09:36:44.742Z,3.80
2017-10-12T09:39:13.029Z,3.53
2017-10-12T09:41:41.486Z,3.90
2017-10-12T09:44:08.971Z,4.83
2017-10-12T09:46:37.250Z,3.67
2017-10-12T09:49:05.501Z,4.13
2017-10-12T09:51:33.021Z,3.67
2017-10-12T09:54:00.510Z,4.27
2017-10-12T09:56:28.002Z,3.87
2017-10-12T09:58:55.547Z,4.00
2017-10-12T10:01:23.048Z,4.23
2017-10-12T10:03:50.542Z,4.13
2017-10-12T10:06:18.058Z,5.07
2017-10-12T10:08:45.545Z,3.87
2017-10-12T10:11:13.043Z,3.63
2017-10-12T10:13:40.554Z,3.97
2017-10-12T10:16:08.051Z,4.43
2017-10-12T10:18:35.579Z,3.80
2017-10-12T10:21:03.085Z,4.57
2017-10-12T10:23:31.373Z,3.90
2017-10-12T10:25:59.650Z,3.97
2017-10-12T10:28:27.934Z,4.20
2017-10-12T10:30:56.198Z,4.40
2017-10-12T10:33:24.459Z,4.30
2017-10-12T10:35:51.988Z,4.30
2017-10-12T10:38:19.490Z,3.80
2017-10-12T10:40:46.994Z,3.43
2017-10-12T10:43:14.514Z,4.43
2017-10-12T10:45:42.832Z,4.10
2017-10-12T10:48:10.327Z,4.70
2017-10-12T10:50:37.854Z,4.17
2017-10-12T10:53:05.378Z,3.93
2017-10-12T10:55:33.642Z,4.40
2017-10-12T10:58:01.935Z,3.73
2017-10-12T11:00:30.201Z,4.00
2017-10-12T11:02:58.471Z,3.70
2017-10-12T11:05:26.762Z,4.40
2017-10-12T11:07:55.019Z,3.90
2017-10-12T11:10:22.520Z,3.60
2017-10-12T11:12:50.051Z,3.63
2017-10-12T11:15:17.545Z,4.10
2017-10-12T11:17:45.063Z,4.20
2017-10-12T11:20:13.342Z,3.50
2017-10-12T11:22:41.618Z,3.23
2017-10-12T11:25:09.887Z,3.70
2017-10-12T11:27:37.401Z,3.43
2017-10-12T11:30:04.916Z,3.50
2017-10-12T11:32:32.418Z,3.80
2017-10-12T11:34:59.939Z,3.77
2017-10-12T11:37:28.195Z,3.90
2017-10-12T11:39:55.690Z,3.60
2017-10-12T11:42:23.967Z,3.87
2017-10-12T11:44:51.449Z,4.00
2017-10-12T11:47:18.965Z,3.60
2017-10-12T11:49:46.482Z,4.20
2017-10-12T11:52:13.987Z,4.67
2017-10-12T11:54:42.253Z,3.60
2017-10-12T11:57:10.549Z,3.20
2017-10-12T11:59:38.807Z,3.83
2017-10-12T12:02:07.069Z,3.70
2017-10-12T12:04:34.579Z,3.00
2017-10-12T12:07:02.110Z,3.10
2017-10-12T12:09:29.603Z,3.53
2017-10-12T12:11:57.118Z,3.10
2017-10-12T12:14:24.606Z,3.43
2017-10-12T12:16:52.102Z,3.70
2017-10-12T12:19:19.610Z,3.77
2017-10-12T12:21:47.108Z,3.57
2017-10-12T12:24:14.603Z,3.47
2017-10-12T12:26:42.120Z,3.10
2017-10-12T12:29:09.635Z,4.03
2017-10-12T12:31:37.132Z,2.80
2017-10-12T12:34:04.628Z,3.50
2017-10-12T12:36:32.147Z,3.30
2017-10-12T12:38:59.643Z,2.83
2017-10-12T12:41:27.129Z,3.00
2017-10-12T12:43:54.638Z,3.07
2017-10-12T12:46:22.138Z,3.57
2017-10-12T12:48:49.631Z,3.10
2017-10-12T12:51:17.142Z,3.10
2017-10-12T12:53:44.638Z,3.40
2017-10-12T12:56:12.138Z,2.73
2017-10-12T12:58:39.646Z,3.27
2017-10-12T13:01:07.919Z,3.40
2017-10-12T13:03:35.406Z,3.10
2017-10-12T13:06:02.910Z,3.43
2017-10-12T13:08:30.398Z,2.97
2017-10-12T13:10:57.918Z,3.90
2017-10-12T13:13:25.406Z,3.20
2017-10-12T13:15:52.938Z,3.33
2017-10-12T13:18:20.454Z,4.23
2017-10-12T13:20:47.948Z,3.33
2017-10-12T13:23:15.444Z,2.80
2017-10-12T13:25:42.950Z,3.50
2017-10-12T13:28:10.442Z,3.33
2017-10-12T13:30:37.925Z,3.53
2017-10-12T13:33:06.206Z,2.63
2017-10-12T13:35:33.697Z,3.23
2017-10-12T13:38:01.190Z,3.23
2017-10-12T13:40:28.712Z,3.20
2017-10-12T13:42:56.197Z,3.33
2017-10-12T13:45:23.687Z,2.77
2017-10-12T13:47:51.202Z,2.70
2017-10-12T13:50:18.706Z,3.50
2017-10-12T13:52:46.211Z,3.20
2017-10-12T13:55:13.715Z,2.93
2017-10-12T13:57:41.260Z,3.10
2017-10-12T14:00:08.775Z,2.73
2017-10-12T14:02:37.024Z,2.80
2017-10-12T14:05:04.520Z,3.00
2017-10-12T14:07:32.054Z,2.93
2017-10-12T14:09:59.582Z,3.63
2017-10-12T14:12:27.082Z,3.50
2017-10-12T14:14:55.358Z,3.00
2017-10-12T14:17:23.639Z,3.23
2017-10-12T14:19:51.898Z,2.67
2017-10-12T14:22:20.169Z,3.03
2017-10-12T14:24:48.466Z,7.60
2017-10-12T14:27:16.757Z,10.90
2017-10-12T14:29:44.263Z,2.97
2017-10-12T14:32:11.753Z,3.30
2017-10-12T14:34:39.273Z,2.80
2017-10-12T14:37:06.771Z,3.13
2017-10-12T14:39:35.026Z,2.83
2017-10-12T14:42:02.552Z,2.43
2017-10-12T14:44:30.059Z,2.03
2017-10-12T14:46:58.323Z,3.60
2017-10-12T14:49:25.840Z,2.77
2017-10-12T14:51:53.342Z,3.30
2017-10-12T14:54:21.001Z,3.40
2017-10-12T14:56:48.506Z,2.70
2017-10-12T14:59:15.998Z,3.30
2017-10-12T15:01:43.532Z,3.13
2017-10-12T15:04:11.026Z,3.63
2017-10-12T15:06:38.521Z,2.83
2017-10-12T15:09:06.795Z,3.47
2017-10-12T15:11:35.592Z,4.13
2017-10-12T15:14:03.082Z,4.17
2017-10-12T15:16:30.584Z,2.90
2017-10-12T15:18:58.113Z,3.13
2017-10-12T15:21:25.605Z,3.60
2017-10-12T15:23:53.107Z,4.77
2017-10-12T15:26:20.631Z,3.20
2017-10-12T15:28:48.118Z,3.83
2017-10-12T15:31:16.378Z,3.63
2017-10-12T15:33:44.654Z,3.63
2017-10-12T15:36:12.925Z,3.87
2017-10-12T15:38:41.195Z,3.73
2017-10-12T15:41:08.715Z,4.27
2017-10-12T15:43:36.210Z,3.60
2017-10-12T15:46:03.710Z,2.97
2017-10-12T15:48:31.223Z,3.77
2017-10-12T15:50:58.722Z,3.57
2017-10-12T15:53:26.282Z,3.83
2017-10-12T15:55:53.774Z,3.63
2017-10-12T15:58:21.261Z,3.47
2017-10-12T16:00:48.775Z,3.90
2017-10-12T16:03:16.272Z,4.10
2017-10-12T16:05:44.422Z,3.27
2017-10-12T16:08:11.909Z,3.77
2017-10-12T16:10:39.407Z,4.17
2017-10-12T16:13:07.682Z,3.40
2017-10-12T16:15:35.942Z,3.40
2017-10-12T16:18:04.203Z,3.57
2017-10-12T16:20:31.707Z,4.00
2017-10-12T16:22:59.196Z,3.80
2017-10-12T16:25:26.694Z,3.80
2017-10-12T16:27:54.207Z,3.93
2017-10-12T16:30:21.698Z,3.33
2017-10-12T16:35:16.776Z,4.20
2017-10-12T16:37:44.282Z,4.33
2017-10-12T16:40:11.810Z,3.77
2017-10-12T16:42:39.322Z,3.97
2017-10-12T16:45:07.586Z,4.67
2017-10-12T16:47:35.098Z,4.73
2017-10-12T16:50:02.601Z,4.00
2017-10-12T16:52:30.885Z,4.70
2017-10-12T16:54:59.155Z,3.70
2017-10-12T16:57:27.426Z,4.10
2017-10-12T16:59:54.938Z,4.10
2017-10-12T17:02:22.459Z,4.23
2017-10-12T17:04:49.956Z,4.57
2017-10-12T17:07:17.473Z,4.87
2017-10-12T17:09:44.962Z,4.73
2017-10-12T17:12:12.462Z,4.30
2017-10-12T17:14:39.981Z,4.40
2017-10-12T17:17:07.481Z,3.87
2017-10-12T17:19:34.981Z,4.30
2017-10-12T17:22:03.267Z,5.17
2017-10-12T17:24:31.526Z,4.83
2017-10-12T17:26:59.028Z,4.27
2017-10-12T17:29:26.555Z,5.07
2017-10-12T17:31:54.824Z,4.20
2017-10-12T17:34:22.312Z,4.50
2017-10-12T17:36:49.875Z,4.50
2017-10-12T17:39:17.376Z,4.97
2017-10-12T17:41:44.883Z,5.00
2017-10-12T17:44:13.138Z,4.63
2017-10-12T17:46:40.645Z,5.30
2017-10-12T17:49:08.206Z,5.40
2017-10-12T17:51:35.703Z,4.60
2017-10-12T17:56:30.780Z,6.20
2017-10-12T17:58:58.275Z,5.97
2017-10-12T18:01:25.763Z,5.17
2017-10-12T18:03:54.071Z,6.13
2017-10-12T18:06:21.568Z,6.47
2017-10-12T18:08:49.082Z,6.00
2017-10-12T18:11:16.611Z,7.13
2017-10-12T18:13:44.455Z,6.80
2017-10-12T18:16:11.957Z,8.73
2017-10-12T18:18:39.482Z,6.50
2017-10-12T18:21:07.060Z,6.50
2017-10-12T18:23:35.327Z,6.43
2017-10-12T18:26:02.940Z,6.17
2017-10-12T18:28:30.463Z,5.80
2017-10-12T18:30:58.748Z,5.63
2017-10-12T18:33:27.356Z,6.20
2017-10-12T18:35:54.916Z,5.90
2017-10-12T18:38:22.893Z,5.30
2017-10-12T18:40:50.513Z,5.60
2017-10-12T18:43:18.422Z,6.70
2017-10-12T18:45:46.290Z,5.93
2017-10-12T18:48:14.156Z,7.27
2017-10-12T18:50:41.817Z,8.60
2017-10-12T18:53:09.609Z,10.13
2017-10-12T18:55:37.555Z,6.10
2017-10-12T18:58:05.426Z,5.43
2017-10-12T19:00:32.972Z,4.83
2017-10-12T19:03:00.797Z,5.40
2017-10-12T19:05:28.415Z,5.57
2017-10-12T19:07:56.071Z,6.37
2017-10-12T19:10:24.049Z,5.30
2017-10-12T19:12:51.688Z,6.20
2017-10-12T19:17:47.058Z,6.47
2017-10-12T19:20:14.749Z,7.17
2017-10-12T19:22:42.398Z,5.90
2017-10-12T19:25:10.123Z,6.00
2017-10-12T19:27:37.912Z,5.80
2017-10-12T19:30:05.457Z,5.87
2017-10-12T19:32:32.976Z,6.50
2017-10-12T19:35:01.270Z,5.30
2017-10-12T19:37:28.795Z,6.07
2017-10-12T19:39:56.332Z,5.13
2017-10-12T19:42:23.959Z,5.57
2017-10-12T19:44:51.494Z,6.20
2017-10-12T19:47:19.039Z,6.03
2017-10-12T19:49:46.599Z,6.10
2017-10-12T19:52:14.146Z,6.23
2017-10-12T19:54:42.571Z,6.43
2017-10-12T19:57:10.122Z,5.20
2017-10-12T19:59:37.647Z,6.30
2017-10-12T20:02:09.737Z,5.80
2017-10-12T20:04:41.659Z,5.93
2017-10-12T20:07:09.193Z,5.40
2017-10-12T20:09:36.858Z,6.23
2017-10-12T20:12:04.390Z,5.97
2017-10-12T20:14:32.736Z,4.83
2017-10-12T20:17:00.292Z,5.30
2017-10-12T20:19:27.830Z,5.53
2017-10-12T20:21:55.366Z,5.60
2017-10-12T20:26:51.190Z,5.93
2017-10-12T20:29:33.672Z,4.87
2017-10-12T20:31:46.210Z,4.00
2017-10-12T20:34:13.732Z,5.30
2017-10-12T20:36:41.227Z,6.00
2017-10-12T20:39:09.505Z,5.70
2017-10-12T20:41:37.779Z,4.90
2017-10-12T20:44:06.041Z,5.27
2017-10-12T20:46:34.308Z,4.70
2017-10-12T20:49:01.826Z,4.20
2017-10-12T20:51:29.327Z,4.73
2017-10-12T20:53:56.818Z,4.80
2017-10-12T20:56:24.322Z,5.23
2017-10-12T20:58:51.814Z,4.70
2017-10-12T21:01:20.095Z,5.33
2017-10-12T21:03:48.350Z,5.10
2017-10-12T21:06:15.843Z,4.33
2017-10-12T21:08:44.116Z,4.30
2017-10-12T21:11:12.379Z,5.00
2017-10-12T21:13:40.658Z,5.80
2017-10-12T21:16:08.934Z,5.20
2017-10-12T21:18:37.195Z,5.30
2017-10-12T21:21:04.701Z,5.13
2017-10-12T21:23:32.197Z,4.77
2017-10-12T21:25:59.703Z,5.10
2017-10-12T21:28:27.990Z,5.40
2017-10-12T21:30:55.499Z,5.33
2017-10-12T21:33:22.998Z,4.77
2017-10-12T21:35:51.298Z,4.20
2017-10-12T21:38:18.803Z,4.37
2017-10-12T21:40:46.313Z,5.20
2017-10-12T21:43:13.840Z,5.17
2017-10-12T21:45:42.097Z,5.00
2017-10-12T21:48:09.597Z,4.30
2017-10-12T21:50:37.879Z,5.00
2017-10-12T21:53:05.370Z,5.03
2017-10-12T21:55:32.867Z,4.80
2017-10-12T21:58:00.388Z,4.57
2017-10-12T22:00:27.884Z,4.40
2017-10-12T22:02:56.169Z,4.50
2017-10-12T22:05:24.482Z,4.37
2017-10-12T22:07:51.978Z,4.97
2017-10-12T22:10:19.496Z,4.80
2017-10-12T22:12:46.981Z,5.13
2017-10-12T22:15:14.477Z,4.90
2017-10-12T22:17:42.762Z,4.57
2017-10-12T22:20:11.015Z,4.10
2017-10-12T22:22:38.501Z,4.43
2017-10-12T22:25:06.778Z,4.23
2017-10-12T22:27:35.035Z,4.60
2017-10-12T22:30:02.527Z,5.00
2017-10-12T22:32:30.043Z,5.23
2017-10-12T22:34:57.543Z,5.37
2017-10-12T22:37:25.061Z,4.30
2017-10-12T22:39:52.558Z,4.70
2017-10-12T22:42:20.062Z,3.87
2017-10-12T22:44:48.334Z,4.77
2017-10-12T22:47:15.849Z,5.23
2017-10-12T22:49:43.378Z,3.47
2017-10-12T22:52:10.872Z,4.13
2017-10-12T22:54:38.392Z,5.83
2017-10-12T22:57:05.918Z,3.73
2017-10-12T22:59:33.423Z,3.83
2017-10-12T23:02:01.690Z,4.13
2017-10-12T23:04:29.222Z,5.20
2017-10-12T23:06:56.720Z,4.43
2017-10-12T23:09:24.224Z,5.73
2017-10-12T23:11:51.742Z,3.40
2017-10-12T23:14:20.010Z,4.57
2017-10-12T23:16:47.500Z,5.10
2017-10-12T23:19:15.796Z,4.93
2017-10-12T23:21:43.302Z,4.40
2017-10-12T23:24:10.809Z,4.93
2017-10-12T23:26:38.334Z,6.20
2017-10-12T23:29:06.598Z,4.67
2017-10-12T23:31:34.875Z,5.33
2017-10-12T23:34:02.388Z,5.40
2017-10-12T23:36:29.885Z,4.87
2017-10-12T23:38:57.382Z,5.23
2017-10-12T23:41:24.898Z,5.67
2017-10-12T23:43:52.387Z,4.90
2017-10-12T23:46:20.649Z,4.33
2017-10-12T23:48:48.169Z,4.90
2017-10-12T23:51:15.690Z,5.03
2017-10-12T23:53:43.198Z,4.27
2017-10-12T23:56:10.698Z,4.53
2017-10-12T23:58:38.969Z,5.30
